Time;durP1;ratioP1;P1;durP2;ratioP2;P2;SDS_P1;SDS_P2;PMS_P1;PMS_P2;Temp;Humidity;BMP_temperature;BMP_pressure;BME280_temperature;BME280_humidity;BME280_pressure;Samples;Min_cycle;Max_cycle;Signal;HPM_P1;HPM_P2
2021/03/12 00:00:45;;;;;;;4.15;1.50;;;10.90;55.40;;;;;;2066052;28;20327;-59
2021/03/12 00:02:07;;;;;;;3.42;1.55;;;11.00;55.50;;;;;;2056927;28;20114;-59
2021/03/12 00:03:32;;;;;;;5.22;2.00;;;10.90;55.50;;;;;;2065248;28;20487;-59
2021/03/12 00:04:53;;;;;;;3.42;1.52;;;10.90;55.50;;;;;;2070623;28;20121;-59
2021/03/12 00:06:14;;;;;;;3.72;1.52;;;10.90;55.50;;;;;;2071727;28;20046;-59
2021/03/12 00:07:35;;;;;;;5.53;1.85;;;10.90;55.30;;;;;;2065669;28;20054;-59
2021/03/12 00:08:55;;;;;;;4.93;1.60;;;10.90;55.50;;;;;;2069411;28;20042;-60
2021/03/12 00:10:21;;;;;;;3.45;1.40;;;10.90;55.40;;;;;;2070390;28;20433;-60
2021/03/12 00:11:42;;;;;;;5.82;1.77;;;10.90;55.40;;;;;;2069383;28;20110;-60
2021/03/12 00:13:05;;;;;;;4.57;2.10;;;10.90;55.20;;;;;;2063751;28;20034;-59
2021/03/12 00:14:26;;;;;;;3.25;1.70;;;10.90;55.80;;;;;;2071093;28;20748;-59
2021/03/12 00:15:47;;;;;;;5.03;1.90;;;10.90;55.30;;;;;;2057817;28;20121;-60
2021/03/12 00:17:08;;;;;;;5.35;1.60;;;10.90;55.50;;;;;;2067072;28;20029;-60
2021/03/12 00:18:40;;;;;;;7.50;1.90;;;10.90;55.20;;;;;;2072461;28;20534;-60
2021/03/12 00:20:01;;;;;;;3.40;1.90;;;10.90;55.50;;;;;;2062243;28;20133;-60
2021/03/12 00:21:22;;;;;;;7.13;1.92;;;10.90;55.30;;;;;;2062745;28;20092;-60
2021/03/12 00:22:44;;;;;;;4.38;1.83;;;10.90;55.40;;;;;;2070269;28;20095;-60
2021/03/12 00:24:06;;;;;;;3.47;1.58;;;10.90;55.30;;;;;;2063717;28;20097;-58
2021/03/12 00:25:33;;;;;;;4.22;2.00;;;10.90;55.30;;;;;;2067896;28;20030;-60
2021/03/12 00:26:58;;;;;;;5.05;1.60;;;10.90;55.40;;;;;;2070526;28;20172;-59
2021/03/12 00:28:19;;;;;;;5.32;1.80;;;10.90;55.30;;;;;;2066067;28;20046;-59
2021/03/12 00:29:40;;;;;;;5.28;1.75;;;11.00;55.30;;;;;;2072879;28;20034;-59
2021/03/12 00:31:03;;;;;;;5.03;2.20;;;11.00;55.30;;;;;;2073602;28;20029;-61
2021/03/12 00:32:24;;;;;;;4.18;1.83;;;11.00;55.30;;;;;;2070522;28;20481;-59
2021/03/12 00:33:45;;;;;;;7.90;2.20;;;11.00;55.20;;;;;;2064862;28;20026;-60
2021/03/12 00:35:07;;;;;;;8.50;1.98;;;11.00;55.20;;;;;;2070287;28;20030;-59
2021/03/12 00:36:28;;;;;;;5.60;2.17;;;11.00;55.30;;;;;;2073025;28;20018;-60
2021/03/12 00:37:49;;;;;;;4.28;1.83;;;11.00;55.30;;;;;;2069482;28;20058;-58
2021/03/12 00:39:10;;;;;;;6.00;1.90;;;11.00;55.30;;;;;;2059262;28;20031;-58
2021/03/12 00:40:35;;;;;;;3.30;1.60;;;11.00;55.30;;;;;;2070546;28;20058;-59
2021/03/12 00:41:56;;;;;;;5.45;1.80;;;11.00;55.40;;;;;;2073931;28;20026;-60
2021/03/12 00:43:19;;;;;;;4.50;1.80;;;11.10;55.40;;;;;;2074078;28;20116;-60
2021/03/12 00:44:40;;;;;;;4.38;1.65;;;11.10;55.40;;;;;;2072942;28;20033;-59
2021/03/12 00:46:04;;;;;;;3.33;1.83;;;11.10;55.30;;;;;;2073385;28;20021;-60
2021/03/12 00:47:25;;;;;;;6.13;1.80;;;11.10;55.30;;;;;;2071049;28;20045;-60
2021/03/12 00:48:46;;;;;;;3.90;1.52;;;11.10;55.40;;;;;;2073797;28;20116;-60
2021/03/12 00:50:09;;;;;;;4.93;2.00;;;11.10;55.30;;;;;;2066848;28;20046;-60
2021/03/12 00:51:30;;;;;;;6.00;1.90;;;11.10;55.30;;;;;;2069298;28;20017;-59
2021/03/12 00:52:51;;;;;;;5.22;1.80;;;11.00;55.20;;;;;;2073227;28;20029;-59
2021/03/12 00:54:12;;;;;;;3.63;1.90;;;11.00;55.20;;;;;;2071505;28;20113;-59
2021/03/12 00:55:33;;;;;;;4.97;1.90;;;11.00;55.20;;;;;;2070487;28;20088;-59
2021/03/12 00:56:54;;;;;;;7.47;2.50;;;11.00;55.20;;;;;;2073151;28;20030;-60
2021/03/12 00:58:16;;;;;;;3.80;1.55;;;11.00;55.30;;;;;;2069404;28;20034;-60
2021/03/12 00:59:37;;;;;;;4.72;1.77;;;11.00;55.50;;;;;;2070374;28;20034;-59
2021/03/12 01:00:58;;;;;;;7.10;2.03;;;11.00;55.30;;;;;;2072297;28;20030;-60
2021/03/12 01:02:19;;;;;;;3.35;1.60;;;11.00;55.30;;;;;;2069483;28;20038;-59
2021/03/12 01:03:40;;;;;;;4.97;1.77;;;11.00;55.30;;;;;;2065643;28;20527;-59
2021/03/12 01:05:01;;;;;;;5.63;1.83;;;11.00;55.30;;;;;;2062640;28;20104;-59
2021/03/12 01:06:22;;;;;;;6.00;1.90;;;11.00;55.30;;;;;;2069018;28;20480;-59
2021/03/12 01:07:44;;;;;;;4.63;1.73;;;11.00;55.20;;;;;;2070201;28;20045;-59
2021/03/12 01:09:05;;;;;;;2.28;1.35;;;11.00;55.30;;;;;;2075905;28;20381;-59
2021/03/12 01:10:27;;;;;;;4.65;2.00;;;11.00;55.50;;;;;;2073654;28;20033;-60
2021/03/12 01:11:48;;;;;;;4.50;1.70;;;11.00;55.30;;;;;;2072840;28;20061;-59
2021/03/12 01:13:09;;;;;;;4.50;1.88;;;11.00;55.20;;;;;;2067186;28;20031;-60
2021/03/12 01:15:42;;;;;;;8.38;2.33;;;11.00;55.40;;;;;;2130551;22;20500;-58
2021/03/12 01:17:02;;;;;;;5.10;1.88;;;11.00;55.50;;;;;;2064026;28;20735;-60
2021/03/12 01:18:23;;;;;;;5.40;1.90;;;11.00;55.30;;;;;;2060553;28;20048;-59
2021/03/12 01:19:44;;;;;;;4.38;1.63;;;11.00;55.40;;;;;;2063703;28;20384;-59
2021/03/12 01:21:05;;;;;;;3.08;1.65;;;11.00;55.20;;;;;;2061702;28;20030;-59
2021/03/12 01:22:26;;;;;;;4.63;1.67;;;11.00;55.20;;;;;;2062257;28;20081;-59
2021/03/12 01:23:47;;;;;;;4.50;1.85;;;11.00;55.20;;;;;;2066309;28;20033;-60
2021/03/12 01:25:10;;;;;;;6.10;1.80;;;11.00;55.10;;;;;;2059580;28;20038;-59
2021/03/12 01:26:31;;;;;;;4.90;1.95;;;11.00;55.20;;;;;;2057350;28;20027;-59
2021/03/12 01:27:52;;;;;;;4.10;1.85;;;11.00;55.10;;;;;;2054628;28;20732;-59
2021/03/12 01:29:13;;;;;;;4.65;1.75;;;11.00;55.10;;;;;;2062608;28;20895;-60
2021/03/12 01:30:40;;;;;;;6.55;1.63;;;11.00;55.00;;;;;;2065948;28;20113;-60
2021/03/12 01:32:01;;;;;;;5.05;1.80;;;11.00;55.10;;;;;;2055336;28;20033;-60
2021/03/12 01:33:22;;;;;;;4.55;1.80;;;11.00;54.90;;;;;;2051592;28;20357;-61
2021/03/12 01:34:43;;;;;;;5.85;1.85;;;11.00;54.90;;;;;;2060874;28;20089;-59
2021/03/12 01:36:04;;;;;;;4.45;1.70;;;11.00;54.90;;;;;;2061491;28;20022;-58
2021/03/12 01:37:25;;;;;;;4.78;1.60;;;11.00;54.90;;;;;;2065010;28;20032;-58
2021/03/12 01:38:45;;;;;;;4.65;2.17;;;11.00;54.90;;;;;;2058231;28;20046;-59
2021/03/12 01:40:09;;;;;;;3.78;1.60;;;11.00;54.80;;;;;;2056567;28;20050;-60
2021/03/12 01:41:30;;;;;;;5.55;1.90;;;10.90;54.90;;;;;;2062927;28;20540;-59
2021/03/12 01:42:53;;;;;;;3.58;1.60;;;11.00;54.90;;;;;;2063173;28;20044;-58
2021/03/12 01:44:15;;;;;;;7.25;1.95;;;10.90;55.00;;;;;;2059669;28;20559;-59
2021/03/12 01:45:40;;;;;;;3.38;1.50;;;10.90;55.00;;;;;;2055903;28;20027;-58
2021/03/12 01:47:01;;;;;;;5.28;1.77;;;11.00;54.90;;;;;;2061721;28;20037;-59
2021/03/12 01:48:24;;;;;;;1.92;1.50;;;11.00;55.00;;;;;;2065193;28;20476;-59
2021/03/12 01:49:45;;;;;;;4.18;1.85;;;11.00;54.90;;;;;;2062243;28;20433;-58
2021/03/12 01:51:08;;;;;;;2.13;1.33;;;10.90;54.80;;;;;;2049746;28;20119;-59
2021/03/12 01:52:29;;;;;;;7.32;2.05;;;10.90;54.80;;;;;;2059879;28;20287;-59
2021/03/12 01:53:50;;;;;;;5.10;1.80;;;10.90;54.80;;;;;;2064004;28;20031;-60
2021/03/12 01:55:28;;;;;;;5.05;1.60;;;11.00;54.90;;;;;;2056341;28;20560;-60
2021/03/12 01:56:49;;;;;;;3.55;1.60;;;10.90;54.80;;;;;;2063366;28;20078;-60
2021/03/12 01:58:11;;;;;;;5.18;1.70;;;11.00;54.60;;;;;;2063685;28;20034;-58
2021/03/12 01:59:32;;;;;;;5.28;1.58;;;11.00;54.50;;;;;;2061298;28;20438;-59
2021/03/12 02:00:53;;;;;;;4.13;2.08;;;11.00;54.40;;;;;;2063992;28;20093;-59
2021/03/12 02:02:14;;;;;;;4.10;1.58;;;11.00;54.40;;;;;;2058859;28;20114;-59
2021/03/12 02:03:35;;;;;;;2.72;1.45;;;11.00;54.40;;;;;;2063262;28;20102;-59
2021/03/12 02:04:57;;;;;;;6.45;1.40;;;10.90;54.30;;;;;;2062540;28;20505;-59
2021/03/12 02:06:17;;;;;;;5.18;1.50;;;11.00;54.40;;;;;;2064329;28;20121;-58
2021/03/12 02:07:38;;;;;;;5.50;2.00;;;11.00;54.30;;;;;;2064748;28;20141;-59
2021/03/12 02:08:59;;;;;;;6.43;1.83;;;11.00;54.20;;;;;;2061716;28;20062;-59
2021/03/12 02:10:23;;;;;;;3.30;1.20;;;11.00;54.20;;;;;;2058562;28;20034;-59
2021/03/12 02:12:09;;;;;;;5.45;1.92;;;10.90;54.20;;;;;;2062051;28;20026;-59
2021/03/12 02:14:01;;;;;;;2.90;1.50;;;11.00;54.30;;;;;;2061175;28;20181;-59
2021/03/12 02:15:36;;;;;;;8.90;2.17;;;11.00;54.20;;;;;;2058478;28;20038;-58
2021/03/12 02:17:05;;;;;;;4.75;1.63;;;11.00;54.10;;;;;;2063472;28;20031;-60
2021/03/12 02:18:41;;;;;;;6.13;1.55;;;11.00;54.00;;;;;;2061913;28;20044;-62
2021/03/12 02:20:23;;;;;;;6.15;2.28;;;11.00;54.00;;;;;;2064841;28;20042;-59
2021/03/12 02:21:50;;;;;;;4.00;2.25;;;11.00;53.90;;;;;;2061583;28;20038;-59
2021/03/12 02:23:33;;;;;;;4.45;1.42;;;11.00;53.80;;;;;;2064518;28;20073;-59
2021/03/12 02:25:04;;;;;;;1.88;1.45;;;11.00;53.80;;;;;;2063841;28;20030;-59
2021/03/12 02:26:43;;;;;;;6.30;1.40;;;11.00;53.70;;;;;;2059204;28;20042;-59
2021/03/12 02:28:04;;;;;;;3.33;1.50;;;11.00;53.80;;;;;;2062061;28;20172;-59
2021/03/12 02:29:25;;;;;;;7.65;2.17;;;11.00;53.80;;;;;;2054670;28;20027;-59
2021/03/12 02:30:46;;;;;;;6.80;1.92;;;11.00;53.80;;;;;;2061271;28;20022;-60
2021/03/12 02:32:09;;;;;;;6.70;2.08;;;11.00;53.70;;;;;;2057931;28;20575;-58
2021/03/12 02:33:31;;;;;;;4.15;1.63;;;11.00;53.70;;;;;;2064411;28;20038;-59
2021/03/12 02:34:53;;;;;;;5.70;2.10;;;11.00;53.70;;;;;;2062941;28;20026;-59
2021/03/12 02:36:16;;;;;;;6.57;1.70;;;11.10;53.80;;;;;;2057142;28;20030;-58
2021/03/12 02:37:38;;;;;;;4.68;1.55;;;11.00;53.70;;;;;;2064982;28;20125;-59
2021/03/12 02:39:00;;;;;;;8.18;1.88;;;11.00;53.70;;;;;;2064592;28;20117;-58
2021/03/12 02:40:21;;;;;;;3.53;1.65;;;11.00;53.60;;;;;;2057978;28;20181;-59
2021/03/12 02:41:44;;;;;;;3.47;1.88;;;11.00;53.60;;;;;;2060529;28;20038;-59
2021/03/12 02:43:06;;;;;;;5.72;1.92;;;11.00;53.60;;;;;;2049734;28;20045;-59
2021/03/12 02:44:29;;;;;;;7.07;1.90;;;11.00;53.60;;;;;;2060576;28;20069;-59
2021/03/12 02:45:51;;;;;;;4.10;1.98;;;11.10;53.60;;;;;;2063488;28;20569;-58
2021/03/12 02:47:19;;;;;;;5.00;2.03;;;11.00;53.60;;;;;;2055561;28;20055;-59
2021/03/12 02:48:40;;;;;;;3.65;1.42;;;11.00;53.60;;;;;;2059989;28;20049;-59
2021/03/12 02:50:01;;;;;;;7.30;2.03;;;11.10;53.60;;;;;;2061772;28;20121;-59
2021/03/12 02:51:23;;;;;;;5.07;1.70;;;11.10;53.60;;;;;;2058718;28;20037;-59
2021/03/12 02:52:46;;;;;;;6.95;2.00;;;11.00;53.50;;;;;;2061389;28;20022;-59
2021/03/12 02:54:07;;;;;;;4.13;1.60;;;11.00;53.50;;;;;;2057794;28;20082;-59
2021/03/12 02:55:29;;;;;;;6.00;1.63;;;11.10;53.60;;;;;;2060991;28;20022;-60
2021/03/12 02:56:50;;;;;;;5.03;2.00;;;11.10;53.60;;;;;;2064064;28;20038;-59
2021/03/12 02:58:13;;;;;;;5.60;1.98;;;11.00;53.50;;;;;;2063744;28;20109;-59
2021/03/12 02:59:34;;;;;;;3.53;1.45;;;11.10;53.60;;;;;;2059718;28;20100;-60
2021/03/12 03:00:55;;;;;;;4.95;1.75;;;11.10;53.60;;;;;;2063578;28;20030;-59
2021/03/12 03:02:20;;;;;;;4.13;1.65;;;11.10;53.70;;;;;;2062644;28;20421;-59
2021/03/12 03:03:42;;;;;;;5.20;1.80;;;11.10;53.60;;;;;;2062315;28;20560;-59
2021/03/12 03:05:05;;;;;;;3.95;1.75;;;11.10;53.60;;;;;;2062567;28;20035;-59
2021/03/12 03:06:27;;;;;;;6.15;1.70;;;11.10;53.60;;;;;;2062531;28;20030;-59
2021/03/12 03:07:49;;;;;;;5.55;1.95;;;11.00;53.60;;;;;;2063632;28;20026;-59
2021/03/12 03:09:12;;;;;;;6.43;2.15;;;11.10;53.60;;;;;;2057429;28;20046;-58
2021/03/12 03:10:33;;;;;;;5.43;2.08;;;11.10;53.60;;;;;;2063254;28;20368;-59
2021/03/12 03:11:55;;;;;;;8.45;2.00;;;11.10;53.50;;;;;;2063554;28;20034;-58
2021/03/12 03:13:16;;;;;;;4.38;2.10;;;11.10;53.50;;;;;;2063454;28;20100;-60
2021/03/12 03:14:38;;;;;;;8.98;2.25;;;11.10;53.50;;;;;;2063521;28;20033;-59
2021/03/12 03:16:01;;;;;;;5.60;2.20;;;11.10;53.50;;;;;;2062696;28;20110;-60
2021/03/12 03:17:22;;;;;;;5.70;2.08;;;11.10;53.50;;;;;;2063449;28;20027;-60
2021/03/12 03:18:45;;;;;;;7.50;2.28;;;11.10;53.40;;;;;;2058744;28;20042;-60
2021/03/12 03:20:10;;;;;;;6.18;2.10;;;11.00;53.30;;;;;;2057086;28;20034;-60
2021/03/12 03:21:32;;;;;;;5.28;1.80;;;11.10;53.30;;;;;;2062521;28;20445;-60
2021/03/12 03:22:54;;;;;;;6.60;2.40;;;11.10;53.30;;;;;;2064593;28;20073;-61
2021/03/12 03:24:14;;;;;;;7.72;1.92;;;11.00;53.20;;;;;;2059513;28;20031;-61
2021/03/12 03:25:35;;;;;;;3.70;2.00;;;11.00;53.20;;;;;;2064959;28;20030;-61
2021/03/12 03:26:56;;;;;;;6.00;1.90;;;11.00;53.20;;;;;;2064674;28;20042;-60
2021/03/12 03:28:17;;;;;;;7.32;1.90;;;11.00;53.20;;;;;;2058409;28;20114;-60
2021/03/12 03:29:38;;;;;;;5.90;1.92;;;11.00;53.20;;;;;;2062981;28;20441;-59
2021/03/12 03:31:03;;;;;;;6.43;1.95;;;11.00;53.20;;;;;;2064218;28;20038;-60
2021/03/12 03:32:24;;;;;;;3.58;1.52;;;11.00;53.20;;;;;;2063709;28;20019;-60
2021/03/12 03:33:45;;;;;;;6.50;1.67;;;11.00;53.00;;;;;;2062942;28;20027;-60
2021/03/12 03:35:08;;;;;;;4.50;2.08;;;11.00;53.00;;;;;;2054194;28;20073;-60
2021/03/12 03:36:29;;;;;;;5.22;1.73;;;11.00;53.00;;;;;;2062040;28;20082;-60
2021/03/12 03:37:50;;;;;;;4.35;1.80;;;11.00;52.90;;;;;;2063110;28;20023;-59
2021/03/12 03:39:12;;;;;;;6.80;2.10;;;11.00;52.80;;;;;;2057945;28;20066;-60
2021/03/12 03:40:33;;;;;;;6.78;1.73;;;11.00;52.90;;;;;;2063205;28;20037;-59
2021/03/12 03:41:58;;;;;;;4.60;2.10;;;11.00;52.80;;;;;;2062692;28;20496;-60
2021/03/12 03:43:24;;;;;;;2.47;1.48;;;11.00;52.80;;;;;;2064169;28;20045;-60
2021/03/12 03:44:45;;;;;;;3.20;1.38;;;11.00;52.70;;;;;;2058943;28;20015;-60
2021/03/12 03:46:08;;;;;;;6.57;2.17;;;10.90;52.70;;;;;;2057831;28;20066;-60
2021/03/12 03:47:30;;;;;;;4.95;2.10;;;11.00;52.70;;;;;;2059858;28;20041;-59
2021/03/12 03:48:52;;;;;;;5.35;1.88;;;10.90;52.60;;;;;;2063981;28;20098;-60
2021/03/12 03:50:15;;;;;;;5.05;1.85;;;10.90;52.50;;;;;;2062903;28;20557;-59
2021/03/12 03:51:40;;;;;;;6.20;1.63;;;10.90;52.50;;;;;;2064137;28;20637;-60
2021/03/12 03:53:03;;;;;;;2.58;1.42;;;10.90;52.50;;;;;;2063945;28;20041;-60
2021/03/12 03:54:25;;;;;;;4.70;2.53;;;10.90;52.50;;;;;;2064256;28;20121;-60
2021/03/12 03:55:48;;;;;;;3.42;1.75;;;10.90;52.50;;;;;;2055183;28;20335;-60
2021/03/12 03:57:10;;;;;;;6.32;1.65;;;10.90;52.50;;;;;;2059728;28;20041;-60
2021/03/12 03:58:33;;;;;;;4.43;1.73;;;10.90;52.50;;;;;;2059370;28;20121;-60
2021/03/12 03:59:58;;;;;;;4.10;1.63;;;10.90;52.50;;;;;;2064747;28;20050;-59
2021/03/12 04:01:19;;;;;;;6.50;2.10;;;10.90;52.50;;;;;;2062733;28;20034;-59
2021/03/12 04:02:40;;;;;;;4.15;1.80;;;10.90;52.50;;;;;;2062246;28;20031;-59
2021/03/12 04:04:01;;;;;;;4.72;1.60;;;10.90;52.50;;;;;;2056047;28;20027;-60
2021/03/12 04:05:23;;;;;;;4.85;1.50;;;10.90;52.40;;;;;;2063397;28;20069;-60
2021/03/12 04:06:45;;;;;;;5.85;1.73;;;10.90;52.40;;;;;;2063547;28;20097;-60
2021/03/12 04:08:06;;;;;;;9.00;1.83;;;10.90;52.40;;;;;;2064405;28;20536;-60
2021/03/12 04:09:27;;;;;;;3.90;1.40;;;10.90;52.40;;;;;;2060739;28;20049;-60
2021/03/12 04:10:50;;;;;;;6.32;2.03;;;10.90;52.40;;;;;;2061050;28;20121;-59
2021/03/12 04:12:13;;;;;;;5.72;1.52;;;10.90;52.40;;;;;;2061278;28;20538;-61
2021/03/12 04:13:34;;;;;;;6.47;1.80;;;10.90;52.40;;;;;;2063778;28;20053;-59
2021/03/12 04:14:55;;;;;;;4.00;1.60;;;10.90;52.30;;;;;;2052938;28;20065;-59
2021/03/12 04:16:17;;;;;;;4.63;1.73;;;10.90;52.30;;;;;;2056067;28;20616;-60
2021/03/12 04:17:38;;;;;;;7.75;2.17;;;10.90;52.30;;;;;;2057252;28;20107;-60
2021/03/12 04:19:00;;;;;;;5.72;1.80;;;10.90;52.30;;;;;;2064299;28;20030;-59
2021/03/12 04:20:21;;;;;;;5.45;1.40;;;10.90;52.40;;;;;;2054844;28;20039;-60
2021/03/12 04:21:42;;;;;;;4.40;1.70;;;10.90;52.40;;;;;;2060296;28;20442;-59
2021/03/12 04:23:05;;;;;;;4.35;1.80;;;10.90;52.40;;;;;;2063609;28;20042;-59
2021/03/12 04:24:26;;;;;;;4.45;1.50;;;10.90;52.40;;;;;;2062857;28;20085;-60
2021/03/12 04:25:48;;;;;;;5.60;1.50;;;10.90;52.50;;;;;;2061913;28;20034;-59
2021/03/12 04:27:10;;;;;;;6.28;1.73;;;10.90;52.50;;;;;;2059737;28;20053;-60
2021/03/12 04:28:31;;;;;;;3.85;1.50;;;10.90;52.50;;;;;;2051589;28;20034;-60
2021/03/12 04:29:52;;;;;;;5.50;1.88;;;10.90;52.50;;;;;;2059708;28;20058;-59
2021/03/12 04:31:14;;;;;;;3.88;1.70;;;10.90;52.60;;;;;;2060495;28;20744;-60
2021/03/12 04:32:37;;;;;;;4.80;1.80;;;10.90;52.60;;;;;;2062789;28;20479;-59
2021/03/12 04:33:58;;;;;;;8.38;1.80;;;10.90;52.70;;;;;;2064712;28;20030;-59
2021/03/12 04:35:19;;;;;;;7.45;1.80;;;10.90;52.70;;;;;;2054168;28;20046;-59
2021/03/12 04:36:41;;;;;;;7.43;1.98;;;10.90;52.80;;;;;;2059768;28;20134;-60
2021/03/12 04:38:03;;;;;;;6.93;2.00;;;10.90;52.90;;;;;;2063259;28;20026;-59
2021/03/12 04:39:24;;;;;;;5.90;2.10;;;10.90;53.00;;;;;;2059055;28;20348;-59
2021/03/12 04:40:46;;;;;;;8.18;2.58;;;10.90;53.00;;;;;;2061437;28;20033;-59
2021/03/12 04:42:08;;;;;;;7.13;2.53;;;10.90;53.10;;;;;;2062339;28;20086;-59
2021/03/12 04:43:29;;;;;;;6.40;2.78;;;10.90;53.20;;;;;;2063894;28;20026;-59
2021/03/12 04:44:51;;;;;;;8.10;2.15;;;10.90;53.20;;;;;;2062373;28;20030;-59
2021/03/12 04:46:13;;;;;;;6.50;2.15;;;10.90;53.20;;;;;;2060256;28;20058;-59
2021/03/12 04:47:35;;;;;;;4.93;1.83;;;10.90;53.30;;;;;;2060328;28;20035;-59
2021/03/12 04:48:57;;;;;;;6.57;2.35;;;10.90;53.40;;;;;;2063717;28;20480;-59
2021/03/12 04:50:18;;;;;;;4.95;1.88;;;10.80;53.40;;;;;;2062270;28;20035;-58
2021/03/12 04:51:42;;;;;;;9.73;2.35;;;10.80;53.50;;;;;;2062791;28;20346;-58
2021/03/12 04:53:05;;;;;;;7.15;2.42;;;10.80;53.80;;;;;;2064112;28;20045;-61
2021/03/12 04:54:27;;;;;;;5.88;2.03;;;10.80;53.80;;;;;;2063202;28;20034;-58
2021/03/12 04:55:49;;;;;;;6.32;1.80;;;10.80;53.80;;;;;;2061666;28;20102;-59
2021/03/12 04:57:10;;;;;;;6.07;2.20;;;10.80;53.80;;;;;;2056514;28;20038;-60
2021/03/12 04:58:32;;;;;;;5.57;2.03;;;10.80;53.80;;;;;;2064389;28;20058;-60
2021/03/12 04:59:56;;;;;;;9.48;2.15;;;10.80;53.80;;;;;;2063525;28;20037;-59
2021/03/12 05:01:18;;;;;;;7.18;2.42;;;10.80;54.00;;;;;;2061740;28;20503;-59
2021/03/12 05:02:39;;;;;;;8.02;2.67;;;10.70;53.90;;;;;;2063675;28;20034;-59
2021/03/12 05:04:06;;;;;;;7.68;2.28;;;10.80;53.90;;;;;;2063745;28;20038;-60
2021/03/12 05:05:28;;;;;;;8.35;2.35;;;10.70;54.00;;;;;;2057761;28;20030;-59
2021/03/12 05:06:49;;;;;;;7.68;2.45;;;10.70;54.10;;;;;;2062003;28;20477;-59
2021/03/12 05:08:12;;;;;;;7.72;2.25;;;10.70;54.10;;;;;;2062847;28;20138;-59
2021/03/12 05:09:33;;;;;;;8.52;2.40;;;10.70;54.20;;;;;;2051965;28;20028;-59
2021/03/12 05:11:04;;;;;;;10.13;2.70;;;10.70;54.10;;;;;;2060883;28;20118;-59
2021/03/12 05:12:25;;;;;;;10.65;3.03;;;10.70;54.20;;;;;;2060891;28;20034;-59
2021/03/12 05:13:49;;;;;;;6.47;2.50;;;10.70;54.30;;;;;;2063327;28;20057;-59
2021/03/12 05:15:11;;;;;;;7.50;2.70;;;10.60;54.30;;;;;;2062464;28;20030;-60
2021/03/12 05:16:32;;;;;;;11.32;2.88;;;10.70;54.40;;;;;;2062145;28;20030;-59
2021/03/12 05:17:53;;;;;;;7.78;2.30;;;10.60;54.50;;;;;;2063304;28;20034;-59
2021/03/12 05:19:13;;;;;;;8.35;2.65;;;10.60;54.50;;;;;;2060597;28;20056;-59
2021/03/12 05:20:34;;;;;;;8.43;2.47;;;10.60;54.60;;;;;;2065799;28;20034;-60
2021/03/12 05:21:55;;;;;;;9.57;3.25;;;10.60;54.80;;;;;;2064045;28;20453;-60
2021/03/12 05:23:17;;;;;;;8.80;2.75;;;10.60;54.70;;;;;;2064501;28;20070;-60
2021/03/12 05:24:38;;;;;;;4.82;2.45;;;10.60;54.70;;;;;;2061849;28;20053;-60
2021/03/12 05:26:00;;;;;;;8.60;2.40;;;10.60;54.60;;;;;;2064845;28;20104;-60
2021/03/12 05:27:20;;;;;;;6.93;2.30;;;10.60;54.80;;;;;;2061828;28;20034;-59
2021/03/12 05:28:41;;;;;;;7.60;2.60;;;10.60;54.70;;;;;;2059976;28;20122;-60
2021/03/12 05:30:04;;;;;;;11.10;2.38;;;10.60;54.80;;;;;;2064398;28;20520;-59
2021/03/12 05:31:30;;;;;;;8.15;2.47;;;10.60;54.70;;;;;;2064112;28;20113;-60
2021/03/12 05:32:51;;;;;;;7.78;2.03;;;10.60;54.70;;;;;;2064113;28;20026;-63
2021/03/12 05:34:11;;;;;;;8.27;2.60;;;10.60;54.70;;;;;;2063830;28;20039;-59
2021/03/12 05:35:33;;;;;;;7.53;2.45;;;10.60;54.60;;;;;;2063623;28;20571;-60
2021/03/12 05:36:54;;;;;;;7.03;2.60;;;10.60;54.60;;;;;;2052797;28;20031;-59
2021/03/12 05:38:15;;;;;;;4.82;1.85;;;10.50;54.50;;;;;;2060122;28;20039;-60
2021/03/12 05:39:36;;;;;;;5.05;1.88;;;10.50;54.40;;;;;;2064650;28;20066;-60
2021/03/12 05:40:57;;;;;;;12.02;2.20;;;10.50;54.40;;;;;;2063108;28;20138;-59
2021/03/12 05:42:18;;;;;;;8.02;2.17;;;10.50;54.50;;;;;;2063945;28;20449;-60
2021/03/12 05:43:41;;;;;;;6.40;1.95;;;10.50;54.40;;;;;;2064414;28;20361;-60
2021/03/12 05:45:03;;;;;;;8.30;2.45;;;10.50;54.40;;;;;;2063305;28;20026;-59
2021/03/12 05:46:24;;;;;;;7.65;2.13;;;10.50;54.40;;;;;;2060745;28;20459;-60
2021/03/12 05:47:46;;;;;;;7.35;2.28;;;10.50;54.40;;;;;;2062112;28;20090;-59
2021/03/12 05:49:08;;;;;;;6.07;2.05;;;10.50;54.40;;;;;;2058134;28;20119;-59
2021/03/12 05:50:29;;;;;;;6.07;2.30;;;10.50;54.40;;;;;;2060040;28;20054;-59
2021/03/12 05:51:50;;;;;;;6.10;2.75;;;10.50;54.40;;;;;;2063957;28;20046;-59
2021/03/12 05:53:12;;;;;;;7.20;2.30;;;10.40;54.40;;;;;;2060477;28;20587;-60
2021/03/12 05:54:33;;;;;;;8.40;2.40;;;10.50;54.50;;;;;;2061236;28;20053;-60
2021/03/12 05:55:57;;;;;;;12.32;2.90;;;10.50;54.60;;;;;;2064350;28;20030;-60
2021/03/12 05:57:19;;;;;;;6.63;2.65;;;10.50;54.70;;;;;;2064238;28;20058;-59
2021/03/12 05:58:40;;;;;;;7.88;2.53;;;10.50;55.20;;;;;;2064108;28;20030;-60
2021/03/12 06:00:01;;;;;;;6.40;2.85;;;10.40;54.70;;;;;;2063662;28;20062;-59
2021/03/12 06:01:21;;;;;;;7.38;2.45;;;10.40;54.80;;;;;;2059354;28;20473;-60
2021/03/12 06:02:42;;;;;;;7.50;2.22;;;10.40;54.80;;;;;;2064909;28;20038;-60
2021/03/12 06:04:03;;;;;;;11.57;2.97;;;10.40;54.80;;;;;;2061941;28;20065;-59
2021/03/12 06:05:24;;;;;;;5.03;2.08;;;10.40;54.90;;;;;;2061954;28;20050;-59
2021/03/12 06:06:48;;;;;;;12.75;2.80;;;10.40;54.90;;;;;;2062481;28;20469;-60
2021/03/12 06:08:09;;;;;;;8.50;2.33;;;10.40;55.00;;;;;;2058264;28;20042;-59
2021/03/12 06:09:30;;;;;;;11.30;2.75;;;10.40;55.00;;;;;;2056714;28;20015;-60
2021/03/12 06:10:51;;;;;;;7.55;2.58;;;10.40;55.00;;;;;;2060648;28;20061;-59
2021/03/12 06:12:13;;;;;;;7.03;2.70;;;10.40;55.10;;;;;;2059806;28;20049;-59
2021/03/12 06:13:54;;;;;;;8.70;2.53;;;10.40;55.20;;;;;;2058229;28;20054;-59
2021/03/12 06:15:16;;;;;;;5.75;2.35;;;10.40;55.70;;;;;;2061645;28;20062;-59
2021/03/12 06:16:37;;;;;;;10.10;2.80;;;10.40;55.80;;;;;;2057441;28;20031;-59
2021/03/12 06:17:58;;;;;;;8.18;2.50;;;10.40;55.20;;;;;;2062052;28;20039;-59
2021/03/12 06:19:19;;;;;;;5.72;2.60;;;10.40;55.20;;;;;;2058396;28;20070;-59
2021/03/12 06:20:41;;;;;;;9.15;2.60;;;10.40;55.30;;;;;;2063067;28;20038;-59
2021/03/12 06:22:08;;;;;;;6.60;2.85;;;10.40;55.40;;;;;;2061423;28;20094;-59
2021/03/12 06:23:43;;;;;;;8.60;2.80;;;10.40;55.60;;;;;;2063380;28;20027;-59
2021/03/12 06:25:14;;;;;;;8.05;2.50;;;10.40;55.50;;;;;;2057090;28;20041;-59
2021/03/12 06:26:44;;;;;;;9.02;2.92;;;10.30;55.50;;;;;;2055790;28;20086;-59
2021/03/12 06:28:13;;;;;;;;;;;10.30;55.50;;;;;;2061919;28;20045;-59
2021/03/12 06:29:38;;;;;;;12.60;2.95;;;10.30;55.50;;;;;;2057458;28;19921;-59
2021/03/12 06:30:59;;;;;;;7.85;2.67;;;10.40;55.20;;;;;;2050809;28;20038;-59
2021/03/12 06:32:40;;;;;;;7.70;2.55;;;10.40;55.10;;;;;;2059764;28;20034;-59
2021/03/12 06:34:11;;;;;;;7.93;2.53;;;10.30;55.40;;;;;;2056070;28;20046;-59
2021/03/12 06:35:37;;;;;;;5.07;2.42;;;10.40;55.40;;;;;;2061320;28;20109;-59
2021/03/12 06:36:59;;;;;;;7.13;2.45;;;10.30;55.40;;;;;;2060053;28;20038;-59
2021/03/12 06:38:20;;;;;;;8.88;2.55;;;10.30;55.30;;;;;;2061332;28;20042;-60
2021/03/12 06:39:42;;;;;;;7.05;2.30;;;10.40;55.30;;;;;;2063660;28;20038;-59
2021/03/12 06:41:03;;;;;;;7.97;2.72;;;10.30;55.30;;;;;;2056020;28;20137;-59
2021/03/12 06:42:25;;;;;;;6.50;2.20;;;10.30;55.40;;;;;;2062707;28;20060;-59
2021/03/12 06:43:46;;;;;;;9.77;2.50;;;10.30;55.50;;;;;;2062491;28;20030;-60
2021/03/12 06:45:07;;;;;;;9.55;2.72;;;10.30;55.40;;;;;;2061990;28;20047;-60
2021/03/12 06:46:44;;;;;;;9.15;2.85;;;10.30;55.40;;;;;;2063911;28;20100;-60
2021/03/12 06:48:26;;;;;;;9.20;2.53;;;10.30;55.70;;;;;;2062931;28;20037;-57
2021/03/12 06:49:58;;;;;;;8.20;2.53;;;10.30;55.70;;;;;;2061462;28;20072;-60
2021/03/12 06:51:19;;;;;;;7.28;2.67;;;10.30;55.60;;;;;;2057885;28;20041;-60
2021/03/12 06:52:40;;;;;;;4.63;2.22;;;10.30;55.70;;;;;;2058874;28;20026;-59
2021/03/12 06:54:06;;;;;;;9.23;3.08;;;10.30;55.80;;;;;;2060516;28;20061;-60
2021/03/12 06:55:42;;;;;;;11.32;3.42;;;10.30;55.90;;;;;;2063175;28;20057;-60
2021/03/12 06:57:19;;;;;;;9.02;2.50;;;10.30;56.00;;;;;;2063008;28;20078;-60
2021/03/12 06:58:57;;;;;;;6.20;2.58;;;10.30;56.00;;;;;;2057232;28;20034;-60
2021/03/12 07:00:31;;;;;;;7.45;2.20;;;10.30;56.10;;;;;;2064800;28;20477;-59
2021/03/12 07:01:59;;;;;;;6.63;2.28;;;10.30;56.00;;;;;;2063602;28;20034;-58
2021/03/12 07:03:20;;;;;;;8.95;2.92;;;10.30;55.90;;;;;;2053851;28;20034;-60
2021/03/12 07:04:53;;;;;;;7.78;2.63;;;10.30;56.00;;;;;;2057231;28;20041;-60
2021/03/12 07:06:16;;;;;;;7.13;2.50;;;10.40;56.20;;;;;;2060863;28;20504;-59
2021/03/12 07:07:39;;;;;;;8.50;2.72;;;10.30;56.00;;;;;;2058929;28;20133;-60
2021/03/12 07:09:05;;;;;;;7.32;2.50;;;10.40;56.10;;;;;;2061618;28;20101;-60
2021/03/12 07:10:33;;;;;;;6.07;2.35;;;10.40;56.10;;;;;;2061230;28;20052;-60
2021/03/12 07:11:59;;;;;;;7.38;2.47;;;10.40;56.10;;;;;;2061596;28;20042;-60
2021/03/12 07:13:21;;;;;;;8.32;2.47;;;10.40;56.10;;;;;;2059208;28;20038;-60